Time;durP1;ratioP1;P1;durP2;ratioP2;P2;SDS_P1;SDS_P2;PMS_P1;PMS_P2;Temp;Humidity;BMP_temperature;BMP_pressure;BME280_temperature;BME280_humidity;BME280_pressure;Samples;Min_cycle;Max_cycle;Signal;HPM_P1;HPM_P2
2024/03/10 00:01:19;;;;;;;;;;;;;;;-2.94;82.35;102171.28;5035397;28;20373;-63
2024/03/10 00:03:44;;;;;;;;;;;;;;;-2.91;82.42;102168.59;5034433;28;20299;-62
2024/03/10 00:06:10;;;;;;;;;;;;;;;-2.86;82.58;102164.13;5034109;28;20487;-63
2024/03/10 00:08:35;;;;;;;;;;;;;;;-2.83;81.95;102167.50;5033712;28;19920;-63
2024/03/10 00:11:01;;;;;;;;;;;;;;;-2.84;81.92;102170.16;5033851;28;19917;-62
2024/03/10 00:13:26;;;;;;;;;;;;;;;-2.82;81.89;102158.78;5033807;28;19928;-63
2024/03/10 00:15:53;;;;;;;;;;;;;;;-2.77;82.09;102160.41;5033884;28;19944;-62
2024/03/10 00:18:18;;;;;;;;;;;;;;;-2.78;81.35;102156.94;5035691;28;19917;-61
2024/03/10 00:20:44;;;;;;;;;;;;;;;-2.75;81.61;102166.44;5033685;28;19944;-61
2024/03/10 00:23:10;;;;;;;;;;;;;;;-2.73;81.46;102165.50;5032118;28;19923;-65
2024/03/10 00:25:35;;;;;;;;;;;;;;;-2.71;81.78;102170.66;5032170;28;20113;-64
2024/03/10 00:28:01;;;;;;;;;;;;;;;-2.71;81.37;102168.91;5033384;28;19920;-61
2024/03/10 00:30:26;;;;;;;;;;;;;;;-2.79;80.69;102165.66;5032170;28;19925;-61
2024/03/10 00:32:51;;;;;;;;;;;;;;;-2.81;81.05;102159.66;5034706;28;19923;-61
2024/03/10 00:35:18;;;;;;;;;;;;;;;-2.84;81.23;102160.59;5034374;28;20399;-63
2024/03/10 00:37:43;;;;;;;;;;;;;;;-2.87;81.41;102160.69;5032000;28;19917;-63
2024/03/10 00:40:08;;;;;;;;;;;;;;;-2.95;81.30;102165.22;5033681;28;20305;-62
2024/03/10 00:42:34;;;;;;;;;;;;;;;-3.05;81.52;102160.31;5033197;28;19964;-62
2024/03/10 00:44:59;;;;;;;;;;;;;;;-3.15;81.50;102157.13;5032965;28;19998;-62
2024/03/10 00:47:25;;;;;;;;;;;;;;;-3.22;82.30;102158.16;5031890;28;19924;-62
2024/03/10 00:49:50;;;;;;;;;;;;;;;-3.29;82.49;102159.22;5034745;28;19917;-62
2024/03/10 00:52:16;;;;;;;;;;;;;;;-3.33;82.55;102168.00;5032909;28;20034;-63
2024/03/10 00:54:41;;;;;;;;;;;;;;;-3.36;82.79;102163.72;5031550;28;19924;-61
2024/03/10 00:57:06;;;;;;;;;;;;;;;-3.42;83.16;102168.25;5032718;28;19952;-63
2024/03/10 00:59:32;;;;;;;;;;;;;;;-3.45;83.60;102166.59;5015238;28;20328;-63
2024/03/10 01:01:58;;;;;;;;;;;;;;;-3.49;84.17;102165.78;5032759;28;19917;-63
2024/03/10 01:04:23;;;;;;;;;;;;;;;-3.51;83.62;102159.75;5033424;28;19921;-64
2024/03/10 01:06:49;;;;;;;;;;;;;;;-3.54;83.64;102164.19;5032492;28;20408;-62
2024/03/10 01:09:18;;;;;;;;;;;;;;;-3.54;84.08;102170.25;5032303;28;19916;-64
2024/03/10 01:11:43;;;;;;;;;;;;;;;-3.50;84.11;102164.06;5032940;28;20015;-63
2024/03/10 01:14:11;;;;;;;;;;;;;;;-3.39;83.93;102168.19;5032522;28;20344;-60
2024/03/10 01:16:36;;;;;;;;;;;;;;;-3.32;83.64;102161.91;5031385;28;19928;-62
2024/03/10 01:19:02;;;;;;;;;;;;;;;-3.24;83.61;102167.75;5032722;28;19917;-62
2024/03/10 01:21:27;;;;;;;;;;;;;;;-3.18;82.82;102162.38;5034346;28;19917;-62
2024/03/10 01:23:52;;;;;;;;;;;;;;;-3.17;82.88;102164.97;5032587;28;19924;-62
2024/03/10 01:26:18;;;;;;;;;;;;;;;-3.13;82.75;102160.53;5032506;28;19921;-62
2024/03/10 01:28:44;;;;;;;;;;;;;;;-3.12;82.55;102164.84;5032708;28;20372;-62
2024/03/10 01:31:09;;;;;;;;;;;;;;;-3.13;83.38;102161.38;5031083;28;19917;-63
2024/03/10 01:33:35;;;;;;;;;;;;;;;-3.07;82.66;102157.75;5032262;28;19967;-62
2024/03/10 01:36:00;;;;;;;;;;;;;;;-3.03;82.92;102135.91;5032961;28;19917;-62
2024/03/10 01:38:26;;;;;;;;;;;;;;;-2.91;83.21;102142.53;5034856;28;19924;-61
2024/03/10 01:40:51;;;;;;;;;;;;;;;-2.84;82.46;102146.69;5032358;28;20356;-63
2024/03/10 01:43:17;;;;;;;;;;;;;;;-2.83;82.28;102149.25;5032383;28;19959;-64
2024/03/10 01:45:42;;;;;;;;;;;;;;;-2.81;82.28;102142.25;5032291;28;19947;-63
2024/03/10 01:48:08;;;;;;;;;;;;;;;-2.69;81.74;102148.00;5032177;28;19923;-62
2024/03/10 01:50:33;;;;;;;;;;;;;;;-2.66;81.10;102150.50;5032048;28;19917;-65
2024/03/10 01:52:59;;;;;;;;;;;;;;;-2.61;80.09;102154.69;5034325;28;20344;-63
2024/03/10 01:55:24;;;;;;;;;;;;;;;-2.56;80.47;102151.97;5032328;28;20348;-62
2024/03/10 01:57:51;;;;;;;;;;;;;;;-2.57;79.37;102151.13;5032210;28;19921;-65
2024/03/10 02:00:19;;;;;;;;;;;;;;;-2.53;79.08;102149.28;5032027;28;19928;-61
2024/03/10 02:02:44;;;;;;;;;;;;;;;-2.48;79.80;102147.38;5032048;28;19940;-65
2024/03/10 02:05:09;;;;;;;;;;;;;;;-2.46;79.34;102149.94;5030858;28;20369;-63
2024/03/10 02:07:35;;;;;;;;;;;;;;;-2.50;79.07;102143.97;5032674;28;20380;-60
2024/03/10 02:10:02;;;;;;;;;;;;;;;-2.50;78.90;102146.56;5032114;28;19917;-65
2024/03/10 02:12:27;;;;;;;;;;;;;;;-2.53;78.58;102141.44;5032646;28;20796;-63
2024/03/10 02:15:03;;;;;;;;;;;;;;;-2.59;78.21;102146.84;5035451;28;20004;-63
2024/03/10 02:17:30;;;;;;;;;;;;;;;-2.65;78.97;102141.78;5036312;28;20315;-64
2024/03/10 02:19:57;;;;;;;;;;;;;;;-2.66;78.91;102140.09;5035973;28;19917;-63
2024/03/10 02:22:24;;;;;;;;;;;;;;;-2.65;78.16;102157.44;5036168;28;20007;-63
2024/03/10 02:24:50;;;;;;;;;;;;;;;-2.76;78.81;102155.16;5036292;28;19917;-64
2024/03/10 02:27:17;;;;;;;;;;;;;;;-2.78;78.57;102150.88;5036165;28;20273;-63
2024/03/10 02:48:53;;;;;;;;;;;;;;;-2.70;79.18;102152.38;5035707;28;19917;-62
2024/03/10 02:51:19;;;;;;;;;;;;;;;-2.72;78.82;102148.09;5035022;28;19924;-62
2024/03/10 02:53:46;;;;;;;;;;;;;;;-2.71;79.26;102149.81;5034646;28;19916;-63
2024/03/10 02:56:13;;;;;;;;;;;;;;;-2.75;79.94;102148.19;5036207;28;19953;-63
2024/03/10 02:58:39;;;;;;;;;;;;;;;-2.76;80.14;102154.28;5035258;28;20389;-65
2024/03/10 03:01:05;;;;;;;;;;;;;;;-2.77;80.31;102148.22;5035115;28;19923;-61
2024/03/10 03:03:31;;;;;;;;;;;;;;;-2.75;80.51;102148.19;5035063;28;19923;-63
2024/03/10 03:05:56;;;;;;;;;;;;;;;-2.71;80.62;102147.19;5035457;28;19917;-62
2024/03/10 03:08:22;;;;;;;;;;;;;;;-2.66;80.18;102147.91;5035704;28;19921;-62
2024/03/10 03:10:47;;;;;;;;;;;;;;;-2.66;80.33;102145.31;5035662;28;19917;-64
2024/03/10 03:13:12;;;;;;;;;;;;;;;-2.65;80.47;102149.63;5036008;28;19987;-65
2024/03/10 03:15:38;;;;;;;;;;;;;;;-2.68;80.95;102154.91;5035397;28;19944;-64
2024/03/10 03:18:03;;;;;;;;;;;;;;;-2.66;80.94;102145.31;5034784;28;19917;-63
2024/03/10 03:20:29;;;;;;;;;;;;;;;-2.62;81.31;102152.13;5034825;28;20003;-65
2024/03/10 03:22:54;;;;;;;;;;;;;;;-2.62;81.80;102147.78;5034957;28;19970;-66
2024/03/10 03:25:20;;;;;;;;;;;;;;;-2.60;81.09;102156.44;5034927;28;19916;-62
2024/03/10 03:27:50;;;;;;;;;;;;;;;-2.60;81.02;102161.66;5037060;28;20400;-62
2024/03/10 03:30:17;;;;;;;;;;;;;;;-2.61;81.36;102164.28;5034405;28;19921;-61
2024/03/10 03:32:43;;;;;;;;;;;;;;;-2.58;81.24;102161.59;5034667;28;19921;-63
2024/03/10 03:35:10;;;;;;;;;;;;;;;-2.55;81.37;102164.13;5034797;28;19924;-62
2024/03/10 03:37:36;;;;;;;;;;;;;;;-2.58;81.64;102169.44;5033563;28;19924;-65
2024/03/10 03:40:03;;;;;;;;;;;;;;;-2.57;81.63;102168.53;5034712;28;19920;-66
2024/03/10 03:42:28;;;;;;;;;;;;;;;-2.59;81.88;102172.94;5035181;28;19916;-63
2024/03/10 03:44:54;;;;;;;;;;;;;;;-2.55;81.68;102171.94;5035281;28;20415;-61
2024/03/10 03:47:19;;;;;;;;;;;;;;;-2.54;81.55;102169.28;5034296;28;20023;-64
2024/03/10 03:49:45;;;;;;;;;;;;;;;-2.55;82.38;102164.97;5034005;28;19917;-63
2024/03/10 03:52:10;;;;;;;;;;;;;;;-2.54;82.75;102161.47;5034300;28;19917;-64
2024/03/10 03:54:35;;;;;;;;;;;;;;;-2.58;83.02;102164.22;5034029;28;19921;-63
2024/03/10 03:57:01;;;;;;;;;;;;;;;-2.55;83.02;102169.34;5033961;28;19917;-62
2024/03/10 03:59:26;;;;;;;;;;;;;;;-2.57;83.29;102166.78;5035093;28;19974;-63
2024/03/10 04:01:52;;;;;;;;;;;;;;;-2.58;83.62;102159.00;5034210;28;20383;-63
2024/03/10 04:04:18;;;;;;;;;;;;;;;-2.57;84.12;102160.69;5033986;28;20459;-65
2024/03/10 04:06:43;;;;;;;;;;;;;;;-2.55;83.91;102159.75;5032873;28;19990;-63
2024/03/10 04:09:09;;;;;;;;;;;;;;;-2.56;83.88;102157.19;5033444;28;19924;-65
2024/03/10 04:11:34;;;;;;;;;;;;;;;-2.53;84.22;102152.75;5032228;28;19917;-64
2024/03/10 04:14:00;;;;;;;;;;;;;;;-2.47;84.41;102161.28;5033893;28;19940;-63
2024/03/10 04:16:25;;;;;;;;;;;;;;;-2.43;83.73;102148.09;5034425;28;19921;-63
2024/03/10 04:18:50;;;;;;;;;;;;;;;-2.42;84.05;102147.19;5033839;28;19957;-63
2024/03/10 04:21:17;;;;;;;;;;;;;;;-2.48;84.50;102150.00;5033921;28;19928;-64
2024/03/10 04:23:42;;;;;;;;;;;;;;;-2.48;84.64;102149.13;5032444;28;19921;-62
2024/03/10 04:26:09;;;;;;;;;;;;;;;-2.52;84.88;102149.22;5034101;28;19986;-64
2024/03/10 04:28:36;;;;;;;;;;;;;;;-2.48;84.82;102150.00;5033478;28;19967;-64
2024/03/10 04:31:01;;;;;;;;;;;;;;;-2.47;85.19;102150.84;5034181;28;20379;-65
2024/03/10 04:33:26;;;;;;;;;;;;;;;-2.46;84.96;102158.63;5033682;28;19952;-62
2024/03/10 04:35:52;;;;;;;;;;;;;;;-2.40;84.96;102152.38;5032858;28;19924;-64
2024/03/10 04:38:17;;;;;;;;;;;;;;;-2.40;85.10;102157.59;5033353;28;19987;-64
2024/03/10 04:40:44;;;;;;;;;;;;;;;-2.40;85.69;102158.44;5033569;28;19917;-63
2024/03/10 04:43:09;;;;;;;;;;;;;;;-2.40;85.18;102157.59;5033262;28;19979;-62
2024/03/10 04:45:35;;;;;;;;;;;;;;;-2.41;85.25;102159.34;5033246;28;19921;-68
2024/03/10 04:48:01;;;;;;;;;;;;;;;-2.37;85.62;102154.88;5033239;28;19923;-68
2024/03/10 04:50:27;;;;;;;;;;;;;;;-2.34;85.37;102157.38;5033250;28;19928;-66
2024/03/10 04:52:52;;;;;;;;;;;;;;;-2.33;85.25;102146.91;5033177;28;19917;-66
2024/03/10 04:55:18;;;;;;;;;;;;;;;-2.25;85.63;102142.34;5032848;28;19923;-67
2024/03/10 04:57:43;;;;;;;;;;;;;;;-2.23;85.02;102156.19;5031614;28;20444;-62
2024/03/10 05:00:10;;;;;;;;;;;;;;;-2.21;85.33;102159.59;5031576;28;19939;-63
2024/03/10 05:02:35;;;;;;;;;;;;;;;-2.18;84.93;102153.44;5033685;28;19917;-64
2024/03/10 05:05:01;;;;;;;;;;;;;;;-2.16;84.94;102167.28;5033848;28;20863;-62
2024/03/10 05:07:28;;;;;;;;;;;;;;;-2.15;84.67;102160.31;5033261;28;19917;-65
2024/03/10 05:09:53;;;;;;;;;;;;;;;-2.10;84.57;102161.88;5034485;28;19999;-66
2024/03/10 05:12:19;;;;;;;;;;;;;;;-2.06;84.33;102160.00;5034475;28;19917;-64
2024/03/10 05:14:44;;;;;;;;;;;;;;;-2.06;85.14;102162.63;5033099;28;19917;-64
2024/03/10 05:17:11;;;;;;;;;;;;;;;-1.99;84.96;102159.78;5033706;28;19917;-63
2024/03/10 05:19:39;;;;;;;;;;;;;;;-1.93;84.22;102154.38;5033656;28;19925;-64
2024/03/10 05:22:04;;;;;;;;;;;;;;;-1.94;84.34;102168.34;5033332;28;19917;-62
2024/03/10 05:24:30;;;;;;;;;;;;;;;-1.93;84.16;102167.44;5032625;28;19917;-65
2024/03/10 05:26:55;;;;;;;;;;;;;;;-1.89;84.03;102170.78;5032458;28;20007;-64
2024/03/10 05:29:21;;;;;;;;;;;;;;;-1.83;83.66;102167.13;5030983;28;19927;-62
2024/03/10 05:31:46;;;;;;;;;;;;;;;-1.80;84.15;102175.72;5032635;28;19917;-63
2024/03/10 05:34:11;;;;;;;;;;;;;;;-1.77;84.42;102165.16;5032738;28;19928;-61
2024/03/10 05:36:37;;;;;;;;;;;;;;;-1.74;84.21;102172.91;5032833;28;19924;-61
2024/03/10 05:39:02;;;;;;;;;;;;;;;-1.67;83.52;102187.50;5032206;28;19916;-65
2024/03/10 05:41:28;;;;;;;;;;;;;;;-1.67;83.30;102177.03;5030702;28;19916;-61
2024/03/10 05:43:53;;;;;;;;;;;;;;;-1.61;83.36;102184.69;5014168;28;20372;-64
2024/03/10 05:46:19;;;;;;;;;;;;;;;-1.60;82.91;102189.00;5032300;28;19983;-64
2024/03/10 05:48:44;;;;;;;;;;;;;;;-1.57;83.31;102193.25;5031308;28;20357;-65
2024/03/10 05:51:13;;;;;;;;;;;;;;;-1.61;82.64;102186.44;5032136;28;19917;-64
2024/03/10 05:53:39;;;;;;;;;;;;;;;-1.62;83.03;102190.81;5032471;28;19928;-62
2024/03/10 05:56:04;;;;;;;;;;;;;;;-1.68;82.69;102191.00;5031618;28;20016;-64
2024/03/10 05:58:34;;;;;;;;;;;;;;;-1.72;83.73;102202.47;5030965;28;20560;-63
2024/03/10 06:01:00;;;;;;;;;;;;;;;-1.68;83.91;102201.47;5030426;28;19953;-67
2024/03/10 06:03:25;;;;;;;;;;;;;;;-1.62;83.81;102203.88;5030879;28;20391;-64
2024/03/10 06:05:50;;;;;;;;;;;;;;;-1.58;83.99;102192.41;5031471;28;19916;-62
2024/03/10 06:08:16;;;;;;;;;;;;;;;-1.56;83.66;102201.06;5047216;28;19925;-64
2024/03/10 06:10:42;;;;;;;;;;;;;;;-1.49;83.06;102195.63;5030898;28;20438;-65
2024/03/10 06:13:07;;;;;;;;;;;;;;;-1.44;83.07;102204.19;5063002;28;19918;-62
2024/03/10 06:15:33;;;;;;;;;;;;;;;-1.39;82.85;102207.50;5031473;28;19917;-63
2024/03/10 06:18:15;;;;;;;;;;;;;;;-1.43;82.84;102205.91;5031553;28;19952;-63
2024/03/10 06:26:26;;;;;;;;;;;;;;;-1.22;82.42;102210.38;5030080;28;19925;-64
2024/03/10 06:28:52;;;;;;;;;;;;;;;-1.28;82.37;102210.59;5031577;28;19947;-63
2024/03/10 06:31:18;;;;;;;;;;;;;;;-1.31;82.72;102211.56;5031524;28;19921;-63
2024/03/10 06:33:44;;;;;;;;;;;;;;;-1.31;82.83;102206.31;5031233;28;19917;-66
2024/03/10 06:36:10;;;;;;;;;;;;;;;-1.17;82.82;102205.84;5031220;28;19917;-64
2024/03/10 06:38:39;;;;;;;;;;;;;;;-1.02;82.16;102196.63;5031624;28;20089;-64
2024/03/10 06:41:05;;;;;;;;;;;;;;;-0.89;81.48;102202.28;5032244;28;19917;-64
2024/03/10 06:43:31;;;;;;;;;;;;;;;-0.80;81.03;102208.06;5032201;28;19917;-65
2024/03/10 06:45:56;;;;;;;;;;;;;;;-0.68;80.61;102206.75;5032292;28;19921;-64
2024/03/10 06:48:22;;;;;;;;;;;;;;;-0.63;79.96;102210.06;5037977;28;20530;-64
2024/03/10 06:50:47;;;;;;;;;;;;;;;-0.59;79.82;102216.03;5033084;28;19924;-65
2024/03/10 06:53:13;;;;;;;;;;;;;;;-0.60;80.02;102217.78;5032237;28;19924;-63
2024/03/10 06:55:38;;;;;;;;;;;;;;;-0.65;79.79;102222.34;5032722;28;19960;-63
2024/03/10 06:58:04;;;;;;;;;;;;;;;-0.68;80.17;102215.44;5047777;28;19924;-68
2024/03/10 07:00:29;;;;;;;;;;;;;;;-0.61;79.61;102221.31;5034781;28;20009;-64
2024/03/10 07:02:55;;;;;;;;;;;;;;;-0.51;79.82;102225.31;5035607;28;20011;-65
2024/03/10 07:05:21;;;;;;;;;;;;;;;-0.47;79.73;102232.16;5034216;28;19979;-64
2024/03/10 07:07:46;;;;;;;;;;;;;;;-0.39;79.64;102218.78;5048692;28;19925;-64
2024/03/10 07:10:12;;;;;;;;;;;;;;;-0.42;78.87;102224.97;5047303;28;19917;-66
2024/03/10 07:12:38;;;;;;;;;;;;;;;-0.46;79.19;102223.38;5045698;28;19924;-66
2024/03/10 07:15:05;;;;;;;;;;;;;;;-0.45;79.37;102230.31;5045756;28;19928;-65
2024/03/10 07:17:31;;;;;;;;;;;;;;;-0.39;78.95;102227.47;5044731;28;19929;-66
2024/03/10 07:19:56;;;;;;;;;;;;;;;-0.28;79.33;102228.88;5047962;28;20023;-70
2024/03/10 07:22:22;;;;;;;;;;;;;;;-0.19;78.99;102225.91;5045609;28;19924;-70
2024/03/10 07:24:47;;;;;;;;;;;;;;;-0.13;78.53;102231.75;5045554;28;19923;-69
2024/03/10 07:27:13;;;;;;;;;;;;;;;-0.11;78.03;102243.00;5042710;28;19921;-68
2024/03/10 07:29:39;;;;;;;;;;;;;;;-0.14;78.29;102230.03;5037621;28;19929;-71
2024/03/10 07:32:05;;;;;;;;;;;;;;;-0.18;78.46;102230.22;5033857;28;19967;-66
2024/03/10 07:34:31;;;;;;;;;;;;;;;-0.15;78.42;102230.09;5042944;28;19920;-65
2024/03/10 07:36:56;;;;;;;;;;;;;;;-0.03;78.48;102238.31;5038952;28;20516;-66
2024/03/10 07:39:22;;;;;;;;;;;;;;;0.09;77.17;102231.78;5034819;28;20380;-67
2024/03/10 07:41:48;;;;;;;;;;;;;;;0.17;77.37;102224.47;5033514;28;19971;-68
2024/03/10 07:44:13;;;;;;;;;;;;;;;0.27;77.58;102225.81;5035784;28;19924;-68
2024/03/10 07:46:39;;;;;;;;;;;;;;;0.44;77.30;102227.75;5034269;28;19917;-69
2024/03/10 07:49:06;;;;;;;;;;;;;;;0.44;75.97;102238.25;5034126;28;19928;-66
2024/03/10 07:51:31;;;;;;;;;;;;;;;0.36;76.67;102236.84;5034325;28;19963;-70
2024/03/10 07:53:58;;;;;;;;;;;;;;;0.38;77.29;102232.41;5033021;28;20351;-66
2024/03/10 07:56:24;;;;;;;;;;;;;;;0.41;76.39;102245.38;5034227;28;19917;-68
2024/03/10 07:58:50;;;;;;;;;;;;;;;0.59;77.17;102242.03;5034640;28;19971;-70
2024/03/10 08:01:15;;;;;;;;;;;;;;;0.78;76.67;102247.34;5033566;28;19917;-70
2024/03/10 08:03:41;;;;;;;;;;;;;;;0.89;76.17;102240.75;5034296;28;19936;-68
2024/03/10 08:06:07;;;;;;;;;;;;;;;1.00;75.07;102249.94;5034541;28;19925;-67
2024/03/10 08:08:33;;;;;;;;;;;;;;;1.01;74.77;102249.03;5034603;28;19917;-67
2024/03/10 08:10:58;;;;;;;;;;;;;;;1.03;74.49;102247.19;5035410;28;19917;-68
2024/03/10 08:13:23;;;;;;;;;;;;;;;1.17;73.95;102247.47;5038287;28;19924;-67
2024/03/10 08:15:50;;;;;;;;;;;;;;;1.31;74.34;102247.69;5034299;28;20291;-68
2024/03/10 08:18:15;;;;;;;;;;;;;;;1.41;73.66;102253.38;5032843;28;20372;-67
2024/03/10 08:20:41;;;;;;;;;;;;;;;1.42;73.23;102255.09;5014296;28;19923;-69
2024/03/10 08:23:06;;;;;;;;;;;;;;;1.31;71.89;102257.34;5013895;28;19921;-67
2024/03/10 08:25:34;;;;;;;;;;;;;;;1.35;72.90;102265.03;5013745;28;19917;-65
2024/03/10 08:28:00;;;;;;;;;;;;;;;1.34;71.62;102278.22;5013664;28;19921;-65
2024/03/10 08:30:25;;;;;;;;;;;;;;;1.24;72.48;102283.00;5016860;28;19922;-68
2024/03/10 08:32:50;;;;;;;;;;;;;;;1.17;72.51;102269.31;5033673;28;19963;-67
2024/03/10 08:35:17;;;;;;;;;;;;;;;1.19;72.84;102277.13;5036112;28;20008;-67
2024/03/10 08:37:45;;;;;;;;;;;;;;;1.35;73.38;102277.28;5034618;28;20405;-67
2024/03/10 08:40:10;;;;;;;;;;;;;;;1.37;72.44;102286.81;5036024;28;19967;-70
2024/03/10 08:42:39;;;;;;;;;;;;;;;1.27;72.28;102282.88;5035624;28;19944;-68
2024/03/10 08:45:08;;;;;;;;;;;;;;;1.30;72.71;102282.75;5033856;28;20300;-68
2024/03/10 08:47:33;;;;;;;;;;;;;;;1.42;72.71;102271.69;5033498;28;20361;-66
2024/03/10 08:49:59;;;;;;;;;;;;;;;1.50;72.08;102264.38;5033452;28;19928;-68
2024/03/10 08:52:24;;;;;;;;;;;;;;;1.45;71.73;102282.09;5031708;28;19917;-65
2024/03/10 08:54:50;;;;;;;;;;;;;;;1.50;71.63;102280.13;5031684;28;20285;-67
2024/03/10 08:57:16;;;;;;;;;;;;;;;1.57;71.40;102285.09;5015037;28;19924;-66
2024/03/10 08:59:42;;;;;;;;;;;;;;;1.58;71.01;102286.78;5031018;28;19923;-68
2024/03/10 09:02:07;;;;;;;;;;;;;;;1.52;71.46;102280.03;5033947;28;19917;-65
2024/03/10 09:04:33;;;;;;;;;;;;;;;1.67;72.17;102287.22;5032848;28;19968;-68
2024/03/10 09:06:58;;;;;;;;;;;;;;;1.68;71.34;102288.94;5032389;28;19917;-67
2024/03/10 09:09:24;;;;;;;;;;;;;;;1.66;71.20;102292.56;5031552;28;19923;-67
2024/03/10 09:11:49;;;;;;;;;;;;;;;1.66;71.41;102287.31;5029313;28;19924;-66
2024/03/10 09:14:15;;;;;;;;;;;;;;;1.63;70.72;102303.19;5031779;28;19917;-65
2024/03/10 09:16:43;;;;;;;;;;;;;;;1.68;71.69;102296.81;5032889;28;19924;-66
2024/03/10 09:19:08;;;;;;;;;;;;;;;1.66;71.63;102292.56;5032705;28;20299;-65
2024/03/10 09:21:34;;;;;;;;;;;;;;;1.61;72.00;102279.63;5032612;28;19917;-65
2024/03/10 09:23:59;;;;;;;;;;;;;;;1.61;71.40;102284.03;5032334;28;19916;-65
2024/03/10 09:26:28;;;;;;;;;;;;;;;1.57;71.87;102275.44;5032713;28;19920;-66
2024/03/10 09:28:57;;;;;;;;;;;;;;;1.62;71.64;102283.09;5032346;28;20404;-66
2024/03/10 09:31:23;;;;;;;;;;;;;;;1.74;72.16;102277.34;5033157;28;19944;-66
2024/03/10 09:33:49;;;;;;;;;;;;;;;1.74;71.64;102287.84;5033586;28;19923;-65
2024/03/10 09:36:16;;;;;;;;;;;;;;;1.75;71.74;102284.28;5033208;28;20427;-65
2024/03/10 09:38:44;;;;;;;;;;;;;;;1.91;71.13;102274.78;5032258;28;19921;-69
2024/03/10 09:41:09;;;;;;;;;;;;;;;1.69;71.18;102285.38;5032327;28;19917;-71
2024/03/10 09:43:37;;;;;;;;;;;;;;;1.47;72.12;102285.50;5030738;28;19917;-70
2024/03/10 09:46:02;;;;;;;;;;;;;;;1.59;72.58;102280.63;5030801;28;19968;-68
2024/03/10 09:48:28;;;;;;;;;;;;;;;1.66;72.31;102279.41;5033978;28;19956;-68
2024/03/10 09:50:54;;;;;;;;;;;;;;;1.91;72.26;102287.91;5033018;28;20376;-70
2024/03/10 09:53:19;;;;;;;;;;;;;;;1.98;71.53;102294.59;5030527;28;19923;-70
2024/03/10 09:55:48;;;;;;;;;;;;;;;2.02;71.62;102290.03;5031819;28;19917;-69
2024/03/10 09:58:15;;;;;;;;;;;;;;;2.11;70.84;102293.13;5031983;28;19917;-69
2024/03/10 10:00:44;;;;;;;;;;;;;;;2.28;70.96;102296.72;5031812;28;20297;-69
2024/03/10 10:03:10;;;;;;;;;;;;;;;2.36;70.26;102294.59;5032175;28;19917;-70
2024/03/10 10:05:42;;;;;;;;;;;;;;;2.35;70.94;102301.63;5014351;28;19917;-67
2024/03/10 10:08:12;;;;;;;;;;;;;;;2.19;70.21;102295.38;5032298;28;19917;-66
2024/03/10 10:10:39;;;;;;;;;;;;;;;2.12;70.86;102299.22;5030794;28;19921;-68
2024/03/10 10:13:05;;;;;;;;;;;;;;;2.10;71.44;102299.28;5065034;28;20002;-69
2024/03/10 10:15:33;;;;;;;;;;;;;;;2.15;70.83;102299.06;5031690;28;20049;-65
2024/03/10 10:17:59;;;;;;;;;;;;;;;2.23;70.90;102296.09;5030273;28;19923;-68
2024/03/10 10:20:28;;;;;;;;;;;;;;;2.30;70.61;102308.00;5030767;28;20033;-67
2024/03/10 10:22:54;;;;;;;;;;;;;;;2.40;70.84;102298.78;5031980;28;19940;-70
2024/03/10 10:25:22;;;;;;;;;;;;;;;2.43;70.38;102296.00;5031311;28;19929;-69
2024/03/10 10:27:49;;;;;;;;;;;;;;;2.46;69.61;102298.50;5031722;28;19924;-64
2024/03/10 10:30:41;;;;;;;;;;;;;;;2.46;69.23;102294.09;5031618;28;19947;-67
2024/03/10 10:33:07;;;;;;;;;;;;;;;2.48;69.13;102308.00;5030251;28;20313;-69
2024/03/10 10:35:39;;;;;;;;;;;;;;;2.48;68.83;102302.75;5034351;28;19917;-65
2024/03/10 10:38:13;;;;;;;;;;;;;;;2.38;68.40;102300.63;5034898;28;19917;-68
2024/03/10 10:40:47;;;;;;;;;;;;;;;2.33;69.04;102302.63;5035533;28;20369;-66
2024/03/10 10:43:13;;;;;;;;;;;;;;;2.42;69.30;102299.56;5033979;28;19921;-67
2024/03/10 10:45:38;;;;;;;;;;;;;;;2.48;69.30;102299.28;5035197;28;20281;-67
2024/03/10 10:48:07;;;;;;;;;;;;;;;2.54;69.74;102296.34;5035027;28;19970;-67
2024/03/10 10:50:34;;;;;;;;;;;;;;;2.55;68.91;102298.03;5035125;28;19928;-68
2024/03/10 10:53:02;;;;;;;;;;;;;;;2.51;69.47;102307.00;5036270;28;20392;-68
2024/03/10 10:55:28;;;;;;;;;;;;;;;2.43;70.01;102310.00;5035292;28;19928;-69
2024/03/10 10:58:06;;;;;;;;;;;;;;;2.47;69.76;102313.34;5035151;28;19917;-68
2024/03/10 11:00:32;;;;;;;;;;;;;;;2.41;71.12;102311.00;5034823;28;19916;-69
2024/03/10 11:03:24;;;;;;;;;;;;;;;2.38;70.29;102305.91;5034737;28;19944;-68
2024/03/10 11:06:02;;;;;;;;;;;;;;;2.53;71.30;102309.56;5032269;28;20380;-68
2024/03/10 11:08:28;;;;;;;;;;;;;;;2.65;71.05;102303.72;5034705;28;20412;-69
2024/03/10 11:10:54;;;;;;;;;;;;;;;2.77;70.63;102303.13;5034442;28;19916;-67
2024/03/10 11:13:20;;;;;;;;;;;;;;;2.88;70.57;102305.22;5034774;28;20384;-66
2024/03/10 11:15:46;;;;;;;;;;;;;;;2.91;70.40;102308.59;5035019;28;19940;-69
2024/03/10 11:18:27;;;;;;;;;;;;;;;2.71;71.34;102308.69;5034668;28;20381;-67
2024/03/10 11:20:56;;;;;;;;;;;;;;;2.64;71.99;102304.66;5033280;28;19971;-65
2024/03/10 11:23:22;;;;;;;;;;;;;;;2.43;73.21;102309.16;5017015;28;19917;-67
2024/03/10 11:25:47;;;;;;;;;;;;;;;2.46;73.52;102304.59;5034865;28;19923;-66
2024/03/10 11:28:13;;;;;;;;;;;;;;;2.64;73.89;102308.16;5035222;28;20324;-72
2024/03/10 11:30:44;;;;;;;;;;;;;;;2.67;73.05;102313.25;5034406;28;19920;-71
2024/03/10 11:33:11;;;;;;;;;;;;;;;2.61;73.34;102312.69;5034576;28;19923;-69
2024/03/10 11:35:36;;;;;;;;;;;;;;;2.68;72.92;102314.09;5016315;28;19963;-66
2024/03/10 11:38:04;;;;;;;;;;;;;;;2.73;73.46;102312.94;5032951;28;19917;-69
2024/03/10 11:40:30;;;;;;;;;;;;;;;2.73;73.70;102317.34;5034328;28;19924;-69
2024/03/10 11:43:01;;;;;;;;;;;;;;;2.77;73.79;102308.38;5033610;28;19917;-69
2024/03/10 11:45:26;;;;;;;;;;;;;;;2.78;73.57;102308.31;5032619;28;19963;-72
2024/03/10 11:47:54;;;;;;;;;;;;;;;2.87;73.46;102306.16;5033772;28;19917;-70
2024/03/10 11:50:19;;;;;;;;;;;;;;;2.78;73.82;102304.81;5065691;28;19917;-71
2024/03/10 11:52:45;;;;;;;;;;;;;;;2.76;74.06;102310.16;5017117;28;19917;-70
2024/03/10 11:55:13;;;;;;;;;;;;;;;2.84;74.84;102308.94;5066165;28;19927;-71
2024/03/10 11:57:41;;;;;;;;;;;;;;;2.85;74.72;102310.63;5034965;28;20074;-69
2024/03/10 12:00:07;;;;;;;;;;;;;;;2.93;73.91;102319.03;5034068;28;19925;-71
2024/03/10 12:02:32;;;;;;;;;;;;;;;2.96;73.77;102313.63;5032054;28;19924;-72
2024/03/10 12:04:59;;;;;;;;;;;;;;;2.94;74.20;102311.06;5033481;28;19917;-73
2024/03/10 12:07:25;;;;;;;;;;;;;;;3.01;74.60;102301.94;5034191;28;20011;-76
2024/03/10 12:09:54;;;;;;;;;;;;;;;3.01;74.30;102301.94;5032620;28;19948;-72
2024/03/10 12:12:19;;;;;;;;;;;;;;;2.89;73.80;102305.19;5033805;28;19923;-73
2024/03/10 12:14:45;;;;;;;;;;;;;;;2.72;74.43;102294.63;5033498;28;19917;-71
2024/03/10 12:17:14;;;;;;;;;;;;;;;2.57;74.56;102269.88;5033204;28;19923;-73
2024/03/10 12:19:42;;;;;;;;;;;;;;;2.71;74.90;102303.44;5032702;28;19916;-72
2024/03/10 12:22:07;;;;;;;;;;;;;;;2.50;75.97;102300.03;5033697;28;19946;-72
2024/03/10 12:24:33;;;;;;;;;;;;;;;2.50;76.28;102294.78;5033133;28;20369;-72
2024/03/10 12:27:06;;;;;;;;;;;;;;;2.56;76.19;102297.13;5065652;28;19921;-74
2024/03/10 12:29:31;;;;;;;;;;;;;;;2.49;76.34;102304.44;5034446;28;19921;-73
2024/03/10 12:31:57;;;;;;;;;;;;;;;2.57;76.34;102295.34;5033500;28;19927;-76
2024/03/10 12:34:22;;;;;;;;;;;;;;;2.59;75.71;102299.59;5032787;28;19916;-73
2024/03/10 12:36:48;;;;;;;;;;;;;;;2.56;75.54;102299.75;5032796;28;19936;-72
2024/03/10 12:39:14;;;;;;;;;;;;;;;2.64;75.82;102302.88;5065197;28;20254;-71
2024/03/10 12:41:39;;;;;;;;;;;;;;;2.65;75.80;102299.31;5030710;28;19924;-72
2024/03/10 12:44:06;;;;;;;;;;;;;;;2.56;76.37;102294.47;5017028;28;19917;-71
2024/03/10 12:46:33;;;;;;;;;;;;;;;2.57;76.03;102297.97;5032712;28;19931;-71
2024/03/10 12:49:00;;;;;;;;;;;;;;;2.61;76.53;102296.91;5032613;28;19917;-73
2024/03/10 12:51:25;;;;;;;;;;;;;;;2.68;75.73;102301.81;5031491;28;19940;-73
2024/03/10 12:53:51;;;;;;;;;;;;;;;2.70;75.88;102307.84;5032755;28;20381;-74
2024/03/10 12:56:16;;;;;;;;;;;;;;;2.74;75.91;102292.75;5032827;28;20320;-68
2024/03/10 12:58:43;;;;;;;;;;;;;;;2.65;75.02;102301.09;5033298;28;20411;-74
2024/03/10 13:01:09;;;;;;;;;;;;;;;2.60;75.48;102296.06;5032913;28;20380;-71